createdAt,value
2022-12-31T00:01:10.244Z,98215.97
2022-12-31T00:03:38.208Z,98209.09
2022-12-31T00:06:16.722Z,98213.44
2022-12-31T00:08:45.062Z,98205.63
2022-12-31T00:11:11.768Z,98209.97
2022-12-31T00:13:39.261Z,98204.81
2022-12-31T00:16:17.594Z,98199.56
2022-12-31T00:18:46.921Z,98195.31
2022-12-31T00:21:14.850Z,98191.84
2022-12-31T00:23:41.553Z,98198.72
2022-12-31T00:26:11.045Z,98205.63
2022-12-31T00:28:39.019Z,98203.94
2022-12-31T00:31:12.570Z,98204.09
2022-12-31T00:33:40.380Z,98210.88
2022-12-31T00:36:10.344Z,98216.88
2022-12-31T00:38:38.305Z,98222.94
2022-12-31T00:41:06.365Z,98212.59
2022-12-31T00:43:33.383Z,98208.25
2022-12-31T00:46:00.553Z,98211.72
2022-12-31T00:48:28.101Z,98213.44
2022-12-31T00:50:55.961Z,98205.81
2022-12-31T00:53:24.035Z,98207.50
2022-12-31T00:55:50.880Z,98208.41
2022-12-31T00:58:17.463Z,98203.28
2022-12-31T01:00:44.545Z,98203.22
2022-12-31T01:03:11.148Z,98205.72
2022-12-31T01:05:37.916Z,98204.94
2022-12-31T01:08:05.708Z,98200.72
2022-12-31T01:10:52.187Z,98193.78
2022-12-31T01:13:18.805Z,98199.88
2022-12-31T01:15:45.517Z,98199.09
2022-12-31T01:18:12.596Z,98187.88
2022-12-31T01:20:41.958Z,98185.28
2022-12-31T01:23:10.974Z,98180.13
2022-12-31T01:25:39.706Z,98172.34
2022-12-31T01:28:06.611Z,98177.44
2022-12-31T01:30:33.232Z,98174.84
2022-12-31T01:32:59.800Z,98180.81
2022-12-31T01:35:26.354Z,98174.72
2022-12-31T01:37:52.949Z,98174.66
2022-12-31T01:40:19.541Z,98176.53
2022-12-31T01:42:53.435Z,98167.81
2022-12-31T01:45:20.118Z,98162.56
2022-12-31T01:47:51.693Z,98172.00
2022-12-31T01:50:25.250Z,98172.91
2022-12-31T01:52:57.528Z,98169.50
2022-12-31T01:58:07.901Z,98165.81
2022-12-31T02:00:34.877Z,98167.56
2022-12-31T02:03:02.694Z,98161.47
2022-12-31T02:06:09.114Z,98169.31
2022-12-31T02:08:41.950Z,98167.47
2022-12-31T02:14:06.103Z,98171.78
2022-12-31T02:17:01.167Z,98161.84
2022-12-31T02:28:09.839Z,98172.00
2022-12-31T02:30:37.586Z,98163.38
2022-12-31T02:38:24.081Z,98166.59
2022-12-31T02:40:54.403Z,98175.56
2022-12-31T02:43:20.932Z,98180.81
2022-12-31T02:46:01.026Z,98170.50
2022-12-31T02:49:07.389Z,98181.81
2022-12-31T02:51:46.223Z,98192.00
2022-12-31T03:00:00.764Z,98179.06
2022-12-31T03:02:30.965Z,98171.25
2022-12-31T03:05:01.362Z,98179.00
2022-12-31T03:07:30.548Z,98182.31
2022-12-31T03:09:57.465Z,98177.25
2022-12-31T03:12:48.825Z,98172.03
2022-12-31T03:15:20.160Z,98178.03
2022-12-31T03:17:49.634Z,98174.53
2022-12-31T03:20:36.316Z,98174.63
2022-12-31T03:23:06.341Z,98156.53
2022-12-31T03:25:34.870Z,98155.66
2022-12-31T03:28:03.357Z,98140.94
2022-12-31T03:30:31.037Z,98143.53
2022-12-31T03:32:58.256Z,98147.84
2022-12-31T03:35:26.588Z,98156.53
2022-12-31T03:37:53.754Z,98153.94
2022-12-31T03:40:23.280Z,98160.72
2022-12-31T03:42:49.919Z,98156.41
2022-12-31T03:45:17.416Z,98154.63
2022-12-31T03:47:44.467Z,98149.41
2022-12-31T03:50:13.392Z,98151.03
2022-12-31T03:52:40.355Z,98132.94
2022-12-31T03:55:08.368Z,98139.78
2022-12-31T03:57:35.347Z,98128.63
2022-12-31T04:00:02.553Z,98126.91
2022-12-31T04:02:29.667Z,98126.06
2022-12-31T04:04:56.443Z,98132.09
2022-12-31T04:07:23.507Z,98131.13
2022-12-31T04:09:50.104Z,98137.16
2022-12-31T04:12:16.749Z,98125.97
2022-12-31T04:14:43.358Z,98115.63
2022-12-31T04:17:09.996Z,98124.28
2022-12-31T04:19:37.779Z,98112.25
2022-12-31T04:22:05.188Z,98107.91
2022-12-31T04:24:32.004Z,98112.25
2022-12-31T04:27:05.377Z,98104.50
2022-12-31T04:29:34.501Z,98105.38
2022-12-31T04:32:01.455Z,98096.94
2022-12-31T04:34:28.054Z,98086.41
2022-12-31T04:36:54.719Z,98073.66
2022-12-31T04:39:21.277Z,98081.34
2022-12-31T04:41:47.839Z,98071.88
2022-12-31T04:44:14.425Z,98076.25
2022-12-31T04:46:41.044Z,98084.06
2022-12-31T04:49:07.868Z,98088.28
2022-12-31T04:51:35.181Z,98087.50
2022-12-31T04:54:01.990Z,98091.75
2022-12-31T04:56:29.470Z,98086.59
2022-12-31T04:58:56.327Z,98079.75
2022-12-31T05:01:23.091Z,98087.53
2022-12-31T05:03:49.976Z,98081.44
2022-12-31T05:06:19.941Z,98064.22
2022-12-31T05:08:47.316Z,98069.41
2022-12-31T05:11:13.938Z,98074.56
2022-12-31T05:13:40.630Z,98078.03
2022-12-31T05:16:07.762Z,98072.06
2022-12-31T05:18:35.543Z,98062.53
2022-12-31T05:21:02.383Z,98054.88
2022-12-31T05:23:29.036Z,98060.75
2022-12-31T05:25:55.975Z,98057.34
2022-12-31T05:28:22.666Z,98054.94
2022-12-31T05:30:50.839Z,98069.41
2022-12-31T05:33:18.343Z,98070.28
2022-12-31T05:35:45.717Z,98063.38
2022-12-31T05:38:12.283Z,98071.88
2022-12-31T05:40:38.834Z,98065.84
2022-12-31T05:43:05.798Z,98060.47
2022-12-31T05:45:32.355Z,98076.78
2022-12-31T05:47:59.215Z,98070.78
2022-12-31T05:50:26.296Z,98068.97
2022-12-31T05:52:52.914Z,98065.44
2022-12-31T05:55:21.213Z,98070.53
2022-12-31T05:57:47.829Z,98070.44
2022-12-31T06:00:15.285Z,98067.84
2022-12-31T06:02:41.904Z,98072.22
2022-12-31T06:05:09.222Z,98067.78
2022-12-31T06:07:35.886Z,98067.03
2022-12-31T06:10:02.450Z,98066.13
2022-12-31T06:12:29.061Z,98065.06
2022-12-31T06:14:55.687Z,98056.34
2022-12-31T06:17:22.585Z,98054.59
2022-12-31T06:19:49.205Z,98045.06
2022-12-31T06:22:16.062Z,98051.88
2022-12-31T06:24:42.737Z,98056.03
2022-12-31T06:27:09.430Z,98042.13
2022-12-31T06:29:36.032Z,98033.41
2022-12-31T06:32:02.660Z,98026.38
2022-12-31T06:34:29.185Z,98022.69
2022-12-31T06:36:55.886Z,98004.50
2022-12-31T06:39:22.594Z,98010.44
2022-12-31T06:41:49.152Z,98032.75
2022-12-31T06:44:15.795Z,98039.50
2022-12-31T06:46:42.402Z,98036.75
2022-12-31T06:49:08.988Z,98024.56
2022-12-31T06:51:35.566Z,98048.59
2022-12-31T06:54:02.168Z,98042.25
2022-12-31T06:56:34.270Z,98045.53
2022-12-31T06:59:01.540Z,98052.31
2022-12-31T07:07:31.138Z,98051.00
2022-12-31T07:10:07.560Z,98065.53
2022-12-31T07:12:58.318Z,98070.59
2022-12-31T07:21:11.767Z,98067.63
2022-12-31T07:23:38.757Z,98073.66
2022-12-31T07:42:24.230Z,98104.50
2022-12-31T07:45:01.249Z,98100.25
2022-12-31T07:47:29.114Z,98084.47
2022-12-31T07:49:56.801Z,98104.34
2022-12-31T07:52:23.803Z,98105.09
2022-12-31T07:54:50.510Z,98118.88
2022-12-31T07:57:19.801Z,98119.06
2022-12-31T08:00:09.524Z,98128.63
2022-12-31T08:11:47.265Z,98156.78
2022-12-31T08:14:15.468Z,98159.34
2022-12-31T08:16:42.621Z,98153.09
2022-12-31T08:19:22.630Z,98169.53
2022-12-31T08:24:58.661Z,98184.28
2022-12-31T08:30:15.336Z,98197.94
2022-12-31T08:38:17.380Z,98212.59
2022-12-31T08:45:58.511Z,98232.31
2022-12-31T08:51:02.934Z,98242.59
2022-12-31T08:53:29.929Z,98249.44
2022-12-31T08:56:05.730Z,98263.44
2022-12-31T09:01:15.147Z,98278.78
2022-12-31T09:06:33.094Z,98278.78
2022-12-31T09:12:10.443Z,98283.00
2022-12-31T09:15:03.254Z,98280.56
2022-12-31T09:20:15.879Z,98286.34
2022-12-31T09:22:42.949Z,98299.75
2022-12-31T09:25:15.616Z,98307.63
2022-12-31T09:30:29.232Z,98304.16
2022-12-31T09:33:07.383Z,98319.66
2022-12-31T09:38:37.446Z,98317.81
2022-12-31T09:52:53.480Z,98336.75
2022-12-31T09:55:59.953Z,98332.19
2022-12-31T10:04:28.050Z,98331.03
2022-12-31T10:10:13.095Z,98336.94
2022-12-31T10:18:34.042Z,98330.59
2022-12-31T10:26:32.636Z,98340.97
2022-12-31T10:29:13.894Z,98344.34
2022-12-31T10:37:11.109Z,98338.94
2022-12-31T10:42:50.057Z,98358.00
2022-12-31T11:10:16.724Z,98369.19
2022-12-31T11:16:00.510Z,98353.53
2022-12-31T11:29:28.740Z,98361.88
2022-12-31T11:35:02.191Z,98370.38
2022-12-31T11:37:36.902Z,98375.97
2022-12-31T11:56:23.315Z,98352.34
2022-12-31T11:58:53.363Z,98355.25
2022-12-31T12:01:24.727Z,98350.53
2022-12-31T12:03:51.458Z,98351.16
2022-12-31T12:06:24.929Z,98352.72
2022-12-31T12:08:51.733Z,98352.84
2022-12-31T12:11:23.562Z,98351.16
2022-12-31T12:13:51.768Z,98346.78
2022-12-31T12:16:21.223Z,98345.03
2022-12-31T12:19:00.855Z,98334.59
2022-12-31T12:21:28.585Z,98337.19
2022-12-31T12:24:06.129Z,98328.81
2022-12-31T12:26:43.191Z,98338.16
2022-12-31T12:29:22.962Z,98326.22
2022-12-31T12:32:13.746Z,98323.72
2022-12-31T12:34:47.574Z,98320.22
2022-12-31T12:37:34.525Z,98309.09
2022-12-31T12:40:09.479Z,98295.88
2022-12-31T12:42:36.109Z,98296.78
2022-12-31T12:47:42.504Z,98285.53
2022-12-31T12:50:17.993Z,98283.75
2022-12-31T12:55:40.263Z,98286.34
2022-12-31T12:58:25.205Z,98285.44
2022-12-31T13:01:23.947Z,98289.81
2022-12-31T13:09:48.393Z,98303.25
2022-12-31T13:12:24.501Z,98297.88
2022-12-31T13:15:03.080Z,98313.66
2022-12-31T13:28:16.482Z,98312.19
2022-12-31T13:30:46.914Z,98309.94
2022-12-31T13:33:18.352Z,98304.63
2022-12-31T13:38:28.537Z,98294.34
2022-12-31T13:41:04.955Z,98282.47
2022-12-31T13:43:43.381Z,98285.91
2022-12-31T13:46:52.182Z,98277.47
2022-12-31T13:52:18.108Z,98260.06
2022-12-31T13:55:00.036Z,98246.31
2022-12-31T13:57:41.297Z,98248.13
2022-12-31T14:00:27.677Z,98237.84
2022-12-31T14:05:41.806Z,98237.84
2022-12-31T14:08:09.848Z,98245.63
2022-12-31T14:11:05.108Z,98251.84
2022-12-31T14:14:11.462Z,98236.38
2022-12-31T14:16:51.884Z,98237.25
2022-12-31T14:24:49.934Z,98242.09
2022-12-31T14:27:30.147Z,98236.03
2022-12-31T14:30:03.323Z,98242.22
2022-12-31T14:32:57.311Z,98231.06
2022-12-31T14:46:32.013Z,98224.69
2022-12-31T14:51:36.361Z,98224.41
2022-12-31T14:54:02.925Z,98226.19
2022-12-31T14:56:40.643Z,98226.38
2022-12-31T14:59:30.837Z,98221.50
2022-12-31T15:01:59.228Z,98229.16
2022-12-31T15:04:43.597Z,98237.97
2022-12-31T15:07:36.575Z,98244.31
2022-12-31T15:10:16.034Z,98225.25
2022-12-31T15:13:06.745Z,98232.31
2022-12-31T15:16:04.627Z,98230.66
2022-12-31T15:23:46.240Z,98225.56
2022-12-31T15:26:31.535Z,98222.38
2022-12-31T15:29:01.600Z,98234.38
2022-12-31T15:31:28.687Z,98233.25
2022-12-31T15:36:38.995Z,98229.53
2022-12-31T15:39:23.341Z,98226.03
2022-12-31T15:42:27.638Z,98215.81
2022-12-31T15:50:13.613Z,98212.28
2022-12-31T15:52:43.705Z,98220.06
2022-12-31T15:55:19.937Z,98218.81
2022-12-31T15:57:47.364Z,98226.28
2022-12-31T16:00:19.452Z,98231.44
2022-12-31T16:02:48.409Z,98229.75
2022-12-31T16:05:19.905Z,98236.63
2022-12-31T16:07:46.777Z,98240.91
2022-12-31T16:10:21.587Z,98240.97
2022-12-31T16:12:49.406Z,98226.28
2022-12-31T16:15:23.464Z,98206.41
2022-12-31T16:18:00.878Z,98223.72
2022-12-31T16:20:31.211Z,98228.88
2022-12-31T16:23:00.090Z,98232.34
2022-12-31T16:25:31.605Z,98241.06
2022-12-31T16:28:01.579Z,98240.22
2022-12-31T16:30:30.910Z,98233.34
2022-12-31T16:33:03.211Z,98231.66
2022-12-31T16:35:32.475Z,98224.75
2022-12-31T16:38:17.200Z,98213.72
2022-12-31T16:41:12.717Z,98220.63
2022-12-31T16:43:41.213Z,98218.03
2022-12-31T16:46:16.174Z,98218.03
2022-12-31T16:51:36.188Z,98223.31
2022-12-31T16:54:03.515Z,98217.28
2022-12-31T16:56:38.220Z,98212.09
2022-12-31T16:59:23.275Z,98207.88
2022-12-31T17:01:52.680Z,98211.28
2022-12-31T17:04:20.948Z,98212.09
2022-12-31T17:06:48.110Z,98222.50
2022-12-31T17:09:31.553Z,98212.25
2022-12-31T17:12:13.975Z,98213.25
2022-12-31T17:14:50.838Z,98227.13
2022-12-31T17:17:25.763Z,98221.94
2022-12-31T17:19:58.821Z,98216.75
2022-12-31T17:22:36.355Z,98211.59
2022-12-31T17:25:08.516Z,98211.59
2022-12-31T17:27:37.298Z,98206.50
2022-12-31T17:33:06.160Z,98194.66
2022-12-31T17:35:37.180Z,98192.06
2022-12-31T17:43:44.865Z,98201.03
2022-12-31T17:46:14.134Z,98189.75
2022-12-31T17:48:41.703Z,98203.56
2022-12-31T17:51:08.365Z,98200.06
2022-12-31T17:53:35.229Z,98192.31
2022-12-31T17:56:05.125Z,98188.84
2022-12-31T17:58:36.666Z,98191.38
2022-12-31T18:01:07.785Z,98190.47
2022-12-31T18:03:34.675Z,98167.97
2022-12-31T18:06:01.358Z,98176.59
2022-12-31T18:08:27.971Z,98183.31
2022-12-31T18:10:55.015Z,98184.09
2022-12-31T18:13:24.568Z,98182.16
2022-12-31T18:15:52.416Z,98179.50
2022-12-31T18:21:01.210Z,98188.72
2022-12-31T18:23:37.456Z,98192.09
2022-12-31T18:26:04.097Z,98198.88
2022-12-31T18:28:30.834Z,98204.72
2022-12-31T18:30:58.205Z,98194.25
2022-12-31T18:33:26.829Z,98193.44
2022-12-31T18:36:10.524Z,98201.97
2022-12-31T18:38:37.910Z,98209.63
2022-12-31T18:41:04.675Z,98210.56
2022-12-31T18:43:31.651Z,98225.13
2022-12-31T18:45:58.811Z,98208.69
2022-12-31T18:48:25.979Z,98197.38
2022-12-31T18:50:53.260Z,98215.44
2022-12-31T18:53:22.722Z,98206.97
2022-12-31T18:55:55.085Z,98215.50
2022-12-31T18:58:22.357Z,98216.31
2022-12-31T19:00:50.740Z,98224.91
2022-12-31T19:03:21.066Z,98236.13
2022-12-31T19:05:51.283Z,98242.16
2022-12-31T19:08:19.786Z,98252.47
2022-12-31T19:10:47.956Z,98258.50
2022-12-31T19:13:15.922Z,98261.88
2022-12-31T19:15:46.760Z,98264.53
2022-12-31T19:18:13.386Z,98268.88
2022-12-31T19:20:41.154Z,98270.56
2022-12-31T19:23:18.706Z,98269.72
2022-12-31T19:25:48.526Z,98274.91
2022-12-31T19:28:17.861Z,98284.44
2022-12-31T19:30:45.377Z,98289.75
2022-12-31T19:33:12.408Z,98288.88
2022-12-31T19:35:40.302Z,98291.53
2022-12-31T19:38:20.950Z,98302.03
2022-12-31T19:40:48.509Z,98300.31
2022-12-31T19:43:18.011Z,98315.88
2022-12-31T19:45:46.257Z,98313.38
2022-12-31T19:48:17.324Z,98320.28
2022-12-31T19:50:48.369Z,98318.56
2022-12-31T19:53:19.589Z,98318.56
2022-12-31T19:55:46.238Z,98334.13
2022-12-31T19:58:20.858Z,98335.19
2022-12-31T20:00:55.671Z,98331.69
2022-12-31T20:03:25.796Z,98347.34
2022-12-31T20:06:02.335Z,98347.34
2022-12-31T20:08:28.905Z,98350.75
2022-12-31T20:10:59.332Z,98349.94
2022-12-31T20:13:27.753Z,98354.22
2022-12-31T20:15:54.411Z,98350.75
2022-12-31T20:18:22.961Z,98355.94
2022-12-31T20:20:55.617Z,98353.34
2022-12-31T20:23:22.929Z,98366.31
2022-12-31T20:25:59.435Z,98366.50
2022-12-31T20:28:26.172Z,98370.28
2022-12-31T20:30:52.945Z,98367.47
2022-12-31T20:33:20.871Z,98370.19
2022-12-31T20:35:47.514Z,98379.69
2022-12-31T20:38:14.120Z,98385.84
2022-12-31T20:40:46.466Z,98376.47
2022-12-31T20:43:13.596Z,98372.38
2022-12-31T20:45:41.533Z,98392.28
2022-12-31T20:48:08.137Z,98395.06
2022-12-31T20:50:34.703Z,98402.00
2022-12-31T20:53:02.043Z,98402.94
2022-12-31T20:55:30.743Z,98412.53
2022-12-31T20:57:57.346Z,98421.25
2022-12-31T21:00:23.974Z,98420.53
2022-12-31T21:03:00.329Z,98439.56
2022-12-31T21:05:30.938Z,98440.56
2022-12-31T21:07:57.592Z,98434.53
2022-12-31T21:10:24.240Z,98438.97
2022-12-31T21:12:53.432Z,98446.78
2022-12-31T21:15:21.553Z,98445.09
2022-12-31T21:17:48.266Z,98449.50
2022-12-31T21:20:15.009Z,98468.63
2022-12-31T21:22:41.922Z,98457.38
2022-12-31T21:25:10.575Z,98458.28
2022-12-31T21:27:37.185Z,98468.63
2022-12-31T21:30:20.418Z,98464.34
2022-12-31T21:32:47.706Z,98472.13
2022-12-31T21:35:42.173Z,98470.44
2022-12-31T21:38:03.179Z,98477.31
2022-12-31T21:40:30.553Z,98473.28
2022-12-31T21:42:57.358Z,98472.28
2022-12-31T21:45:24.448Z,98482.56
2022-12-31T21:48:11.156Z,98479.19
2022-12-31T21:50:37.766Z,98484.47
2022-12-31T21:53:04.391Z,98486.22
2022-12-31T21:55:50.866Z,98504.41
2022-12-31T21:58:26.349Z,98494.28
2022-12-31T22:01:14.074Z,98501.97
2022-12-31T22:03:40.881Z,98501.09
2022-12-31T22:06:14.181Z,98495.97
2022-12-31T22:08:42.111Z,98495.19
2022-12-31T22:11:10.027Z,98496.19
2022-12-31T22:13:37.271Z,98508.25
2022-12-31T22:16:05.928Z,98516.06
2022-12-31T22:18:35.761Z,98515.50
2022-12-31T22:21:05.703Z,98502.56
2022-12-31T22:23:33.717Z,98507.72
2022-12-31T22:26:01.067Z,98519.84
2022-12-31T22:28:38.090Z,98522.59
2022-12-31T22:31:06.428Z,98519.19
2022-12-31T22:33:33.094Z,98522.72
2022-12-31T22:38:36.742Z,98535.72
2022-12-31T22:41:09.812Z,98543.63
2022-12-31T22:43:42.101Z,98548.84
2022-12-31T22:46:11.671Z,98548.81
2022-12-31T22:48:38.816Z,98547.09
2022-12-31T22:51:06.335Z,98536.75
2022-12-31T22:53:33.418Z,98546.28
2022-12-31T22:56:00.253Z,98529.94
2022-12-31T22:58:26.970Z,98536.88
2022-12-31T23:00:53.761Z,98548.19
2022-12-31T23:03:20.481Z,98547.34
2022-12-31T23:05:51.805Z,98555.19
2022-12-31T23:08:23.413Z,98560.34
2022-12-31T23:11:00.859Z,98563.91
2022-12-31T23:13:51.416Z,98555.41
2022-12-31T23:16:39.029Z,98558.97
2022-12-31T23:19:26.228Z,98564.25
2022-12-31T23:22:13.858Z,98563.53
2022-12-31T23:24:40.643Z,98549.75
2022-12-31T23:27:08.016Z,98555.81
2022-12-31T23:29:43.697Z,98566.16
2022-12-31T23:32:13.290Z,98580.75
2022-12-31T23:34:39.872Z,98593.72
2022-12-31T23:37:06.428Z,98594.47
2022-12-31T23:39:33.046Z,98602.19
2022-12-31T23:42:00.463Z,98598.75
2022-12-31T23:44:27.914Z,98581.50
2022-12-31T23:46:55.229Z,98581.47
2022-12-31T23:49:22.101Z,98584.91
2022-12-31T23:51:49.070Z,98581.44
2022-12-31T23:54:16.006Z,98584.84
2022-12-31T23:56:42.753Z,98587.44
2022-12-31T23:59:10.851Z,98583.06
